createdAt,value
2022-11-19T00:01:35.908Z,9.00
2022-11-19T00:04:24.133Z,9.00
2022-11-19T00:07:10.746Z,9.10
2022-11-19T00:09:57.606Z,9.10
2022-11-19T00:12:54.956Z,9.10
2022-11-19T00:15:41.700Z,9.10
2022-11-19T00:18:29.804Z,9.20
2022-11-19T00:21:16.609Z,9.10
2022-11-19T00:24:02.969Z,9.10
2022-11-19T00:26:49.342Z,9.10
2022-11-19T00:29:35.803Z,9.10
2022-11-19T00:32:22.263Z,9.20
2022-11-19T00:35:10.921Z,9.20
2022-11-19T00:37:57.761Z,9.30
2022-11-19T00:40:44.391Z,9.30
2022-11-19T00:43:49.605Z,9.30
2022-11-19T00:46:36.261Z,9.30
2022-11-19T00:49:22.718Z,9.30
2022-11-19T00:52:10.683Z,9.30
2022-11-19T00:54:56.945Z,9.30
2022-11-19T00:57:43.334Z,9.30
2022-11-19T01:00:29.736Z,9.30
2022-11-19T01:03:16.169Z,9.20
2022-11-19T01:06:03.150Z,9.20
2022-11-19T01:08:51.875Z,9.10
2022-11-19T01:11:39.059Z,9.10
2022-11-19T01:14:25.543Z,9.10
2022-11-19T01:17:12.312Z,9.10
2022-11-19T01:19:58.929Z,9.10
2022-11-19T01:22:46.513Z,9.10
2022-11-19T01:25:34.846Z,9.10
2022-11-19T01:28:21.403Z,9.20
2022-11-19T01:31:09.431Z,9.20
2022-11-19T01:33:56.329Z,9.20
2022-11-19T01:36:42.835Z,9.30
2022-11-19T01:39:29.157Z,9.30
2022-11-19T01:42:41.784Z,9.30
2022-11-19T01:45:33.415Z,9.30
2022-11-19T01:48:25.810Z,9.20
2022-11-19T01:51:16.951Z,9.10
2022-11-19T01:54:09.559Z,9.10
2022-11-19T01:57:00.221Z,9.10
2022-11-19T01:59:51.364Z,9.20
2022-11-19T02:02:38.034Z,9.20
2022-11-19T02:05:26.063Z,9.20
2022-11-19T02:08:38.392Z,9.20
2022-11-19T02:11:48.842Z,9.20
2022-11-19T02:15:08.097Z,9.20
2022-11-19T02:18:08.177Z,9.20
2022-11-19T02:21:01.860Z,9.20
2022-11-19T02:24:01.595Z,9.10
2022-11-19T02:27:36.009Z,9.10
2022-11-19T02:30:24.441Z,9.10
2022-11-19T02:33:14.331Z,9.10
2022-11-19T02:36:07.702Z,9.10
2022-11-19T02:39:03.404Z,9.00
2022-11-19T02:42:00.185Z,9.00
2022-11-19T02:45:02.364Z,9.00
2022-11-19T02:47:54.451Z,9.00
2022-11-19T02:50:45.614Z,9.00
2022-11-19T02:53:32.268Z,9.10
2022-11-19T02:56:51.415Z,9.00
2022-11-19T03:00:01.147Z,8.90
2022-11-19T03:03:27.599Z,9.00
2022-11-19T03:06:17.269Z,9.00
2022-11-19T03:09:04.242Z,9.00
2022-11-19T03:11:57.698Z,9.10
2022-11-19T03:15:10.451Z,9.10
2022-11-19T03:18:07.177Z,9.10
2022-11-19T03:21:01.825Z,9.20
2022-11-19T03:23:54.057Z,9.30
2022-11-19T03:26:45.414Z,9.30
2022-11-19T03:29:35.643Z,9.30
2022-11-19T03:32:24.851Z,9.30
2022-11-19T03:35:16.732Z,9.30
2022-11-19T03:38:06.820Z,9.20
2022-11-19T03:40:55.860Z,9.20
2022-11-19T03:43:46.821Z,9.10
2022-11-19T03:46:36.765Z,9.00
2022-11-19T03:49:31.503Z,9.00
2022-11-19T03:52:21.538Z,8.90
2022-11-19T03:55:08.683Z,8.90
2022-11-19T03:57:55.095Z,9.00
2022-11-19T04:00:41.467Z,9.00
2022-11-19T04:03:27.826Z,9.00
2022-11-19T04:06:14.310Z,9.10
2022-11-19T04:09:02.546Z,9.10
2022-11-19T04:14:35.216Z,9.00
2022-11-19T04:17:22.038Z,9.00
2022-11-19T04:20:10.481Z,9.10
2022-11-19T04:22:57.337Z,9.00
2022-11-19T04:25:48.354Z,9.00
2022-11-19T04:28:35.025Z,9.00
2022-11-19T04:31:21.520Z,9.10
2022-11-19T04:34:08.080Z,9.10
2022-11-19T04:36:54.760Z,9.20
2022-11-19T04:39:41.148Z,9.20
2022-11-19T04:42:29.132Z,9.20
2022-11-19T04:45:16.155Z,9.20
2022-11-19T04:48:02.550Z,9.20
2022-11-19T04:50:49.043Z,9.20
2022-11-19T04:53:35.767Z,9.20
2022-11-19T04:56:22.500Z,9.20
2022-11-19T04:59:10.539Z,9.20
2022-11-19T05:01:57.004Z,9.20
2022-11-19T05:04:43.798Z,9.20
2022-11-19T05:07:30.241Z,9.20
2022-11-19T05:10:17.140Z,9.20
2022-11-19T05:13:03.549Z,9.10
2022-11-19T05:15:51.472Z,9.00
2022-11-19T05:18:37.982Z,9.00
2022-11-19T05:21:24.320Z,8.90
2022-11-19T05:24:10.919Z,8.90
2022-11-19T05:26:57.652Z,9.00
2022-11-19T05:29:43.898Z,8.90
2022-11-19T05:32:31.682Z,9.00
2022-11-19T05:35:18.645Z,9.00
2022-11-19T05:38:06.478Z,9.10
2022-11-19T05:40:52.741Z,8.90
2022-11-19T05:43:39.651Z,8.90
2022-11-19T05:46:26.150Z,8.80
2022-11-19T05:49:13.846Z,8.80
2022-11-19T05:52:00.616Z,8.90
2022-11-19T05:54:47.036Z,8.90
2022-11-19T05:57:33.395Z,8.90
2022-11-19T06:00:20.114Z,8.90
2022-11-19T06:03:06.814Z,9.00
2022-11-19T06:05:55.086Z,9.00
2022-11-19T06:08:41.826Z,9.00
2022-11-19T06:11:45.700Z,9.00
2022-11-19T06:14:32.433Z,9.00
2022-11-19T06:17:19.482Z,8.90
2022-11-19T06:20:08.655Z,8.90
2022-11-19T06:22:56.811Z,8.80
2022-11-19T06:25:43.198Z,8.90
2022-11-19T06:28:29.593Z,8.90
2022-11-19T06:31:16.052Z,8.90
2022-11-19T06:34:02.671Z,8.90
2022-11-19T06:36:50.843Z,8.90
2022-11-19T06:39:38.795Z,8.90
2022-11-19T06:42:36.921Z,8.90
2022-11-19T06:45:23.706Z,8.90
2022-11-19T06:48:10.387Z,8.90
2022-11-19T06:50:56.867Z,8.90
2022-11-19T06:53:43.440Z,8.90
2022-11-19T06:56:31.242Z,8.90
2022-11-19T06:59:18.337Z,8.90
2022-11-19T07:02:05.428Z,8.80
2022-11-19T07:04:52.446Z,8.90
2022-11-19T07:07:38.703Z,8.80
2022-11-19T07:10:25.633Z,8.90
2022-11-19T07:13:13.597Z,8.90
2022-11-19T07:16:03.705Z,9.00
2022-11-19T07:18:50.702Z,9.00
2022-11-19T07:21:37.563Z,9.10
2022-11-19T07:24:24.505Z,9.10
2022-11-19T07:27:11.133Z,9.10
2022-11-19T07:29:58.994Z,9.20
2022-11-19T07:32:45.585Z,9.30
2022-11-19T07:35:31.905Z,9.30
2022-11-19T07:38:18.275Z,9.30
2022-11-19T07:41:26.520Z,9.30
2022-11-19T07:44:13.036Z,9.30
2022-11-19T07:47:00.893Z,9.30
2022-11-19T07:49:47.259Z,9.40
2022-11-19T07:52:33.883Z,9.40
2022-11-19T07:55:20.707Z,9.30
2022-11-19T07:58:07.424Z,9.20
2022-11-19T08:00:54.085Z,9.30
2022-11-19T08:03:42.794Z,9.40
2022-11-19T08:06:30.678Z,9.30
2022-11-19T08:09:17.693Z,9.30
2022-11-19T08:12:04.654Z,9.30
2022-11-19T08:14:50.969Z,9.30
2022-11-19T08:17:54.737Z,9.30
2022-11-19T08:20:43.056Z,9.30
2022-11-19T08:23:29.768Z,9.30
2022-11-19T08:26:16.127Z,9.30
2022-11-19T08:29:02.670Z,9.30
2022-11-19T08:31:49.709Z,9.40
2022-11-19T08:34:36.639Z,9.50
2022-11-19T08:37:25.003Z,9.50
2022-11-19T08:40:12.473Z,9.50
2022-11-19T08:43:00.784Z,9.50
2022-11-19T08:45:53.935Z,9.50
2022-11-19T08:48:40.516Z,9.60
2022-11-19T08:51:27.217Z,9.60
2022-11-19T08:54:15.058Z,9.80
2022-11-19T08:57:01.732Z,9.90
2022-11-19T08:59:48.266Z,9.80
2022-11-19T09:02:34.663Z,9.90
2022-11-19T09:05:21.482Z,9.80
2022-11-19T09:08:08.008Z,9.80
2022-11-19T09:10:55.795Z,9.80
2022-11-19T09:13:42.528Z,9.70
2022-11-19T09:16:29.195Z,9.80
2022-11-19T09:19:15.687Z,9.80
2022-11-19T09:22:02.024Z,10.00
2022-11-19T09:24:48.356Z,9.90
2022-11-19T09:27:36.832Z,9.90
2022-11-19T09:30:23.718Z,10.00
2022-11-19T09:33:10.250Z,9.90
2022-11-19T09:35:56.650Z,9.90
2022-11-19T09:38:43.176Z,9.90
2022-11-19T09:41:47.803Z,9.90
2022-11-19T09:44:57.052Z,9.80
2022-11-19T09:47:54.898Z,9.80
2022-11-19T09:50:53.518Z,9.70
2022-11-19T09:53:45.734Z,9.70
2022-11-19T09:56:37.022Z,9.60
2022-11-19T09:59:27.165Z,9.60
2022-11-19T10:02:19.196Z,9.60
2022-11-19T10:05:06.777Z,9.50
2022-11-19T10:08:04.152Z,9.50
2022-11-19T10:11:01.296Z,9.40
2022-11-19T10:13:57.967Z,9.50
2022-11-19T10:16:55.824Z,9.60
2022-11-19T10:19:54.159Z,9.60
2022-11-19T10:22:46.748Z,9.70
2022-11-19T10:25:39.363Z,9.70
2022-11-19T10:28:30.194Z,9.80
2022-11-19T10:31:20.299Z,9.70
2022-11-19T10:34:13.934Z,9.60
2022-11-19T10:37:08.853Z,9.50
2022-11-19T10:40:01.580Z,9.50
2022-11-19T10:42:53.558Z,9.50
2022-11-19T10:45:40.297Z,9.40
2022-11-19T10:48:37.420Z,9.50
2022-11-19T10:51:28.229Z,9.50
2022-11-19T10:54:25.020Z,9.50
2022-11-19T10:57:18.357Z,9.50
2022-11-19T11:00:05.757Z,9.30
2022-11-19T11:02:58.178Z,9.40
2022-11-19T11:05:56.755Z,9.30
2022-11-19T11:08:51.483Z,9.40
2022-11-19T11:11:57.296Z,9.40
2022-11-19T11:14:54.792Z,9.40
2022-11-19T11:17:44.686Z,9.50
2022-11-19T11:20:31.967Z,9.50
2022-11-19T11:23:23.526Z,9.50
2022-11-19T11:26:12.581Z,9.50
2022-11-19T11:29:02.947Z,9.40
2022-11-19T11:31:49.747Z,9.40
2022-11-19T11:34:42.152Z,9.40
2022-11-19T11:37:31.181Z,9.40
2022-11-19T11:40:21.369Z,9.40
2022-11-19T11:43:07.750Z,9.40
2022-11-19T11:46:00.440Z,9.50
2022-11-19T11:48:50.156Z,9.50
2022-11-19T11:51:40.391Z,9.50
2022-11-19T11:54:26.879Z,9.50
2022-11-19T11:57:18.476Z,9.50
2022-11-19T12:00:30.026Z,9.50
2022-11-19T12:03:20.154Z,9.50
2022-11-19T12:06:12.837Z,9.50
2022-11-19T12:09:05.325Z,9.50
2022-11-19T12:11:58.892Z,9.50
2022-11-19T12:14:57.674Z,9.40
2022-11-19T12:17:50.744Z,9.40
2022-11-19T12:20:46.427Z,9.40
2022-11-19T12:24:06.491Z,9.40
2022-11-19T12:27:02.567Z,9.40
2022-11-19T12:30:00.542Z,9.40
2022-11-19T12:33:26.634Z,9.40
2022-11-19T12:36:23.843Z,9.50
2022-11-19T12:39:21.703Z,9.40
2022-11-19T12:42:26.962Z,9.40
2022-11-19T12:45:23.191Z,9.40
2022-11-19T12:48:30.883Z,9.50
2022-11-19T12:51:26.259Z,9.50
2022-11-19T12:54:35.195Z,9.50
2022-11-19T12:57:41.624Z,9.70
2022-11-19T13:00:30.545Z,9.70
2022-11-19T13:03:23.596Z,9.70
2022-11-19T13:06:17.964Z,9.70
2022-11-19T13:09:12.991Z,9.70
2022-11-19T13:12:05.456Z,9.70
2022-11-19T13:14:55.944Z,9.70
2022-11-19T13:17:46.452Z,9.80
2022-11-19T13:20:41.666Z,9.90
2022-11-19T13:23:33.656Z,9.90
2022-11-19T13:26:24.951Z,10.00
2022-11-19T13:29:28.385Z,9.90
2022-11-19T13:32:24.354Z,10.00
2022-11-19T13:35:17.665Z,9.90
2022-11-19T13:38:13.353Z,9.90
2022-11-19T13:41:09.658Z,9.80
2022-11-19T13:44:16.243Z,9.70
2022-11-19T13:47:03.214Z,9.70
2022-11-19T13:49:53.707Z,9.60
2022-11-19T13:52:45.950Z,9.50
2022-11-19T13:55:36.439Z,9.50
2022-11-19T13:58:26.749Z,9.50
2022-11-19T14:01:43.735Z,9.40
2022-11-19T14:05:06.124Z,9.50
2022-11-19T14:08:16.232Z,9.40
2022-11-19T14:11:15.620Z,9.40
2022-11-19T14:14:32.286Z,9.30
2022-11-19T14:17:47.471Z,9.30
2022-11-19T14:20:57.756Z,9.30
2022-11-19T14:24:04.522Z,9.30
2022-11-19T14:27:21.203Z,9.00
2022-11-19T14:30:19.594Z,8.90
2022-11-19T14:33:53.019Z,8.70
2022-11-19T14:36:45.969Z,8.50
2022-11-19T14:39:39.929Z,8.40
2022-11-19T14:42:27.714Z,8.50
2022-11-19T14:45:21.410Z,8.50
2022-11-19T14:48:08.830Z,8.50
2022-11-19T14:51:02.517Z,8.50
2022-11-19T14:53:51.765Z,8.60
2022-11-19T14:56:39.108Z,8.50
2022-11-19T14:59:29.418Z,8.20
2022-11-19T15:02:23.216Z,8.10
2022-11-19T15:05:19.304Z,8.00
2022-11-19T15:08:29.097Z,7.80
2022-11-19T15:11:16.493Z,7.90
2022-11-19T15:14:39.598Z,7.80
2022-11-19T15:17:28.910Z,7.90
2022-11-19T15:20:26.953Z,7.90
2022-11-19T15:23:23.730Z,8.00
2022-11-19T15:26:18.230Z,8.00
2022-11-19T15:29:15.268Z,8.00
2022-11-19T15:32:18.883Z,7.70
2022-11-19T15:35:32.218Z,7.60
2022-11-19T15:38:30.342Z,7.70
2022-11-19T15:41:24.418Z,7.90
2022-11-19T15:44:18.321Z,7.80
2022-11-19T15:47:09.021Z,7.80
2022-11-19T15:49:58.909Z,7.90
2022-11-19T15:52:59.061Z,8.10
2022-11-19T15:55:53.905Z,8.10
2022-11-19T15:58:43.281Z,8.20
2022-11-19T16:01:32.996Z,8.20
2022-11-19T16:04:19.678Z,8.30
2022-11-19T16:07:09.919Z,8.20
2022-11-19T16:09:59.601Z,8.20
2022-11-19T16:13:12.697Z,8.10
2022-11-19T16:16:16.889Z,8.10
2022-11-19T16:19:06.479Z,8.20
2022-11-19T16:21:57.371Z,8.20
2022-11-19T16:25:01.752Z,8.10
2022-11-19T16:27:49.750Z,8.10
2022-11-19T16:30:46.071Z,8.10
2022-11-19T16:33:34.024Z,8.20
2022-11-19T16:36:21.194Z,8.30
2022-11-19T16:39:11.888Z,8.30
2022-11-19T16:42:19.059Z,8.40
2022-11-19T16:45:15.623Z,8.40
2022-11-19T16:48:03.358Z,8.40
2022-11-19T16:50:50.178Z,8.30
2022-11-19T16:53:46.585Z,8.20
2022-11-19T16:56:36.450Z,8.10
2022-11-19T16:59:24.790Z,8.10
2022-11-19T17:02:17.276Z,8.00
2022-11-19T17:05:07.523Z,8.00
2022-11-19T17:08:04.614Z,7.90
2022-11-19T17:11:11.216Z,7.90
2022-11-19T17:13:58.132Z,8.00
2022-11-19T17:16:47.141Z,8.10
2022-11-19T17:19:36.983Z,8.20
2022-11-19T17:22:27.724Z,8.20
2022-11-19T17:25:15.030Z,8.10
2022-11-19T17:28:02.746Z,8.20
2022-11-19T17:30:50.739Z,8.20
2022-11-19T17:33:37.958Z,8.20
2022-11-19T17:36:27.686Z,8.20
2022-11-19T17:39:15.506Z,8.20
2022-11-19T17:42:19.642Z,8.10
2022-11-19T17:45:10.752Z,8.10
2022-11-19T17:47:57.825Z,8.10
2022-11-19T17:50:44.316Z,8.10
2022-11-19T17:53:32.218Z,8.20
2022-11-19T17:56:24.546Z,8.10
2022-11-19T17:59:11.240Z,8.10
2022-11-19T18:01:57.696Z,8.10
2022-11-19T18:04:45.611Z,8.00
2022-11-19T18:07:32.311Z,7.90
2022-11-19T18:10:20.417Z,7.70
2022-11-19T18:13:07.369Z,7.70
2022-11-19T18:15:54.102Z,7.70
2022-11-19T18:18:40.426Z,7.70
2022-11-19T18:21:27.303Z,7.60
2022-11-19T18:24:13.863Z,7.60
2022-11-19T18:27:01.616Z,7.50
2022-11-19T18:29:48.206Z,7.50
2022-11-19T18:32:34.582Z,7.50
2022-11-19T18:35:22.408Z,7.40
2022-11-19T18:38:08.980Z,7.40
2022-11-19T18:40:55.392Z,7.30
2022-11-19T18:44:01.063Z,7.30
2022-11-19T18:46:47.666Z,7.30
2022-11-19T18:49:35.116Z,7.40
2022-11-19T18:52:21.719Z,7.50
2022-11-19T18:55:10.042Z,7.40
2022-11-19T18:57:56.465Z,7.50
2022-11-19T19:00:44.288Z,7.40
2022-11-19T19:03:30.919Z,7.50
2022-11-19T19:06:17.608Z,7.40
2022-11-19T19:09:04.270Z,7.50
2022-11-19T19:12:13.426Z,7.50
2022-11-19T19:15:00.745Z,7.40
2022-11-19T19:17:48.504Z,7.30
2022-11-19T19:20:35.005Z,7.30
2022-11-19T19:23:21.544Z,7.30
2022-11-19T19:26:08.998Z,7.40
2022-11-19T19:28:56.062Z,7.20
2022-11-19T19:31:42.832Z,7.20
2022-11-19T19:34:31.272Z,7.10
2022-11-19T19:37:17.973Z,7.20
2022-11-19T19:40:05.006Z,7.30
2022-11-19T19:42:51.408Z,7.40
2022-11-19T19:45:37.997Z,7.40
2022-11-19T19:48:24.418Z,7.30
2022-11-19T19:51:13.250Z,7.40
2022-11-19T19:54:00.766Z,7.30
2022-11-19T19:56:47.482Z,7.40
2022-11-19T19:59:34.501Z,7.30
2022-11-19T20:02:21.268Z,7.30
2022-11-19T20:05:08.864Z,7.20
2022-11-19T20:07:56.871Z,7.30
2022-11-19T20:10:43.150Z,7.20
2022-11-19T20:13:31.943Z,7.30
2022-11-19T20:16:20.095Z,7.30
2022-11-19T20:19:07.550Z,7.40
2022-11-19T20:21:54.472Z,7.50
2022-11-19T20:24:42.213Z,7.40
2022-11-19T20:27:28.655Z,7.40
2022-11-19T20:30:15.105Z,7.40
2022-11-19T20:33:02.017Z,7.40
2022-11-19T20:35:52.623Z,7.50
2022-11-19T20:38:40.858Z,7.40
2022-11-19T20:41:46.714Z,7.40
2022-11-19T20:44:33.463Z,7.30
2022-11-19T20:47:19.760Z,7.30
2022-11-19T20:50:06.575Z,7.30
2022-11-19T20:52:52.876Z,7.30
2022-11-19T20:56:03.612Z,7.10
2022-11-19T20:58:47.166Z,7.10
2022-11-19T21:01:33.809Z,7.20
2022-11-19T21:04:20.562Z,7.20
2022-11-19T21:07:07.554Z,7.10
2022-11-19T21:09:54.223Z,7.10
2022-11-19T21:13:00.485Z,7.20
2022-11-19T21:15:48.423Z,7.20
2022-11-19T21:18:37.054Z,7.20
2022-11-19T21:21:24.888Z,7.20
2022-11-19T21:24:11.560Z,7.20
2022-11-19T21:26:58.100Z,7.20
2022-11-19T21:29:44.440Z,7.30
2022-11-19T21:32:32.206Z,7.30
2022-11-19T21:35:18.590Z,7.20
2022-11-19T21:38:09.449Z,7.30
2022-11-19T21:40:58.706Z,7.20
2022-11-19T21:43:45.148Z,7.30
2022-11-19T21:46:32.054Z,7.20
2022-11-19T21:49:20.340Z,7.20
2022-11-19T21:52:07.466Z,7.10
2022-11-19T21:54:53.790Z,7.10
2022-11-19T21:57:40.173Z,7.00
2022-11-19T22:00:26.682Z,6.90
2022-11-19T22:03:14.149Z,6.90
2022-11-19T22:06:04.796Z,6.90
2022-11-19T22:08:51.401Z,6.90
2022-11-19T22:11:37.877Z,6.70
2022-11-19T22:14:24.711Z,6.80
2022-11-19T22:17:11.219Z,6.90
2022-11-19T22:19:57.579Z,7.00
2022-11-19T22:22:45.982Z,7.00
2022-11-19T22:25:32.516Z,7.10
2022-11-19T22:28:19.131Z,7.20
2022-11-19T22:31:06.171Z,7.20
2022-11-19T22:33:53.829Z,7.30
2022-11-19T22:36:40.458Z,7.30
2022-11-19T22:39:28.266Z,7.40
2022-11-19T22:42:15.064Z,7.40
2022-11-19T22:45:01.850Z,7.40
2022-11-19T22:47:48.846Z,7.40
2022-11-19T22:50:35.104Z,7.40
2022-11-19T22:53:21.847Z,7.40
2022-11-19T22:56:12.893Z,7.50
2022-11-19T22:58:59.430Z,7.50
2022-11-19T23:01:46.212Z,7.50
2022-11-19T23:04:32.782Z,7.40
2022-11-19T23:07:19.046Z,7.40
2022-11-19T23:10:06.387Z,7.40
2022-11-19T23:13:11.629Z,7.40
2022-11-19T23:16:04.071Z,7.20
2022-11-19T23:18:52.591Z,7.20
2022-11-19T23:21:39.125Z,7.00
2022-11-19T23:24:25.505Z,7.00
2022-11-19T23:27:12.227Z,7.10
2022-11-19T23:29:59.982Z,7.10
2022-11-19T23:32:46.334Z,7.00
2022-11-19T23:35:35.091Z,7.10
2022-11-19T23:38:21.735Z,7.30
2022-11-19T23:41:09.569Z,7.20
2022-11-19T23:43:56.488Z,7.20
2022-11-19T23:46:44.106Z,7.30
2022-11-19T23:49:33.194Z,7.30
2022-11-19T23:52:19.554Z,7.10
2022-11-19T23:55:06.513Z,7.10
2022-11-19T23:57:52.931Z,7.10
